sensor_id;sensor_type;location;lat;lon;timestamp;temperature;humidity
9542;DHT22;4809;48.224;8.572;2022-07-29T00:02:18;17.90;99.90
9542;DHT22;4809;48.224;8.572;2022-07-29T00:04:43;17.90;99.90
9542;DHT22;4809;48.224;8.572;2022-07-29T00:07:09;17.80;99.90
9542;DHT22;4809;48.224;8.572;2022-07-29T00:09:35;17.70;99.90
9542;DHT22;4809;48.224;8.572;2022-07-29T00:12:01;17.70;99.90
9542;DHT22;4809;48.224;8.572;2022-07-29T00:14:27;17.70;99.90
9542;DHT22;4809;48.224;8.572;2022-07-29T00:16:53;17.70;99.90
9542;DHT22;4809;48.224;8.572;2022-07-29T00:19:19;17.80;99.90
9542;DHT22;4809;48.224;8.572;2022-07-29T00:21:44;17.80;99.90
9542;DHT22;4809;48.224;8.572;2022-07-29T00:24:10;17.80;99.90
9542;DHT22;4809;48.224;8.572;2022-07-29T00:26:36;17.90;99.90
9542;DHT22;4809;48.224;8.572;2022-07-29T00:29:03;17.90;99.90
9542;DHT22;4809;48.224;8.572;2022-07-29T00:31:29;17.90;99.90
9542;DHT22;4809;48.224;8.572;2022-07-29T00:33:55;17.80;99.90
9542;DHT22;4809;48.224;8.572;2022-07-29T00:36:21;17.80;99.90
9542;DHT22;4809;48.224;8.572;2022-07-29T00:38:51;17.80;99.90
9542;DHT22;4809;48.224;8.572;2022-07-29T00:41:18;17.80;99.90
9542;DHT22;4809;48.224;8.572;2022-07-29T00:43:44;17.80;99.90
9542;DHT22;4809;48.224;8.572;2022-07-29T00:46:10;17.90;99.90
9542;DHT22;4809;48.224;8.572;2022-07-29T00:48:36;17.90;99.90
9542;DHT22;4809;48.224;8.572;2022-07-29T00:51:04;17.90;99.90
9542;DHT22;4809;48.224;8.572;2022-07-29T00:53:31;17.90;99.90
9542;DHT22;4809;48.224;8.572;2022-07-29T00:55:57;17.90;99.90
9542;DHT22;4809;48.224;8.572;2022-07-29T00:58:23;18.00;99.90
9542;DHT22;4809;48.224;8.572;2022-07-29T01:00:49;17.80;99.90
9542;DHT22;4809;48.224;8.572;2022-07-29T01:03:15;17.80;99.90
9542;DHT22;4809;48.224;8.572;2022-07-29T01:05:43;17.80;99.90
9542;DHT22;4809;48.224;8.572;2022-07-29T01:08:11;17.80;99.90
9542;DHT22;4809;48.224;8.572;2022-07-29T01:10:38;17.70;99.90
9542;DHT22;4809;48.224;8.572;2022-07-29T01:13:05;17.70;99.90
9542;DHT22;4809;48.224;8.572;2022-07-29T01:15:31;17.60;99.90
9542;DHT22;4809;48.224;8.572;2022-07-29T01:18:07;17.60;99.90
9542;DHT22;4809;48.224;8.572;2022-07-29T01:20:49;17.60;99.90
9542;DHT22;4809;48.224;8.572;2022-07-29T01:24:03;17.50;99.90
9542;DHT22;4809;48.224;8.572;2022-07-29T01:34:12;17.40;99.90
9542;DHT22;4809;48.224;8.572;2022-07-29T01:36:43;17.30;99.90
9542;DHT22;4809;48.224;8.572;2022-07-29T01:39:14;17.20;99.90
9542;DHT22;4809;48.224;8.572;2022-07-29T01:41:49;17.10;99.90
9542;DHT22;4809;48.224;8.572;2022-07-29T01:44:25;17.20;99.90
9542;DHT22;4809;48.224;8.572;2022-07-29T01:46:57;17.20;99.90
9542;DHT22;4809;48.224;8.572;2022-07-29T01:49:28;17.20;99.90
9542;DHT22;4809;48.224;8.572;2022-07-29T01:52:00;17.30;99.90
9542;DHT22;4809;48.224;8.572;2022-07-29T01:54:39;17.30;99.90
9542;DHT22;4809;48.224;8.572;2022-07-29T01:57:14;17.30;99.90
9542;DHT22;4809;48.224;8.572;2022-07-29T01:59:41;17.30;99.90
9542;DHT22;4809;48.224;8.572;2022-07-29T02:02:10;17.40;99.90
9542;DHT22;4809;48.224;8.572;2022-07-29T02:04:37;17.30;99.90
9542;DHT22;4809;48.224;8.572;2022-07-29T02:07:06;17.20;99.90
9542;DHT22;4809;48.224;8.572;2022-07-29T02:09:35;17.30;99.90
9542;DHT22;4809;48.224;8.572;2022-07-29T02:12:03;17.20;99.90
9542;DHT22;4809;48.224;8.572;2022-07-29T02:14:33;17.30;99.90
9542;DHT22;4809;48.224;8.572;2022-07-29T02:17:00;17.40;99.90
9542;DHT22;4809;48.224;8.572;2022-07-29T02:19:27;17.30;99.90
9542;DHT22;4809;48.224;8.572;2022-07-29T02:21:55;17.40;99.90
9542;DHT22;4809;48.224;8.572;2022-07-29T02:24:24;17.40;99.90
9542;DHT22;4809;48.224;8.572;2022-07-29T02:26:53;17.40;99.90
9542;DHT22;4809;48.224;8.572;2022-07-29T02:29:26;17.40;99.90
9542;DHT22;4809;48.224;8.572;2022-07-29T02:31:52;17.40;99.90
9542;DHT22;4809;48.224;8.572;2022-07-29T02:34:20;17.40;99.90
9542;DHT22;4809;48.224;8.572;2022-07-29T02:36:47;17.40;99.90
9542;DHT22;4809;48.224;8.572;2022-07-29T02:39:15;17.30;99.90
9542;DHT22;4809;48.224;8.572;2022-07-29T02:41:50;17.20;99.90
9542;DHT22;4809;48.224;8.572;2022-07-29T02:44:18;17.20;99.90
9542;DHT22;4809;48.224;8.572;2022-07-29T02:46:51;17.20;99.90
9542;DHT22;4809;48.224;8.572;2022-07-29T02:49:37;17.20;99.90
9542;DHT22;4809;48.224;8.572;2022-07-29T02:52:08;17.20;99.90
9542;DHT22;4809;48.224;8.572;2022-07-29T02:54:56;17.30;99.90
9542;DHT22;4809;48.224;8.572;2022-07-29T02:59:57;17.40;99.90
9542;DHT22;4809;48.224;8.572;2022-07-29T03:02:25;17.30;99.90
9542;DHT22;4809;48.224;8.572;2022-07-29T03:04:52;17.30;99.90
9542;DHT22;4809;48.224;8.572;2022-07-29T03:07:20;17.30;99.90
9542;DHT22;4809;48.224;8.572;2022-07-29T03:09:46;17.30;99.90
9542;DHT22;4809;48.224;8.572;2022-07-29T03:12:13;17.30;99.90
9542;DHT22;4809;48.224;8.572;2022-07-29T03:14:40;17.30;99.90
9542;DHT22;4809;48.224;8.572;2022-07-29T03:17:07;17.30;99.90
9542;DHT22;4809;48.224;8.572;2022-07-29T03:19:35;17.30;99.90
9542;DHT22;4809;48.224;8.572;2022-07-29T03:22:01;17.30;99.90
9542;DHT22;4809;48.224;8.572;2022-07-29T03:24:32;17.20;99.90
9542;DHT22;4809;48.224;8.572;2022-07-29T03:26:59;17.20;99.90
9542;DHT22;4809;48.224;8.572;2022-07-29T03:29:25;17.20;99.90
9542;DHT22;4809;48.224;8.572;2022-07-29T03:31:51;17.20;99.90
9542;DHT22;4809;48.224;8.572;2022-07-29T03:34:17;17.20;99.90
9542;DHT22;4809;48.224;8.572;2022-07-29T03:36:43;17.20;99.90
9542;DHT22;4809;48.224;8.572;2022-07-29T03:39:10;17.20;99.90
9542;DHT22;4809;48.224;8.572;2022-07-29T03:41:38;17.20;99.90
9542;DHT22;4809;48.224;8.572;2022-07-29T03:44:07;17.30;99.90
9542;DHT22;4809;48.224;8.572;2022-07-29T03:46:36;17.30;99.90
9542;DHT22;4809;48.224;8.572;2022-07-29T03:49:03;17.20;99.90
9542;DHT22;4809;48.224;8.572;2022-07-29T03:51:30;17.20;99.90
9542;DHT22;4809;48.224;8.572;2022-07-29T03:53:56;17.10;99.90
9542;DHT22;4809;48.224;8.572;2022-07-29T03:56:23;17.10;99.90
9542;DHT22;4809;48.224;8.572;2022-07-29T03:58:51;17.10;99.90
9542;DHT22;4809;48.224;8.572;2022-07-29T04:01:19;17.00;99.90
9542;DHT22;4809;48.224;8.572;2022-07-29T04:03:45;17.00;99.90
9542;DHT22;4809;48.224;8.572;2022-07-29T04:06:12;16.90;99.90
9542;DHT22;4809;48.224;8.572;2022-07-29T04:08:38;16.90;99.90
9542;DHT22;4809;48.224;8.572;2022-07-29T04:11:04;16.90;99.90
9542;DHT22;4809;48.224;8.572;2022-07-29T04:13:31;16.90;99.90
9542;DHT22;4809;48.224;8.572;2022-07-29T04:15:57;16.90;99.90
9542;DHT22;4809;48.224;8.572;2022-07-29T04:18:23;16.90;99.90
9542;DHT22;4809;48.224;8.572;2022-07-29T04:20:49;16.90;99.90
9542;DHT22;4809;48.224;8.572;2022-07-29T04:23:14;17.00;99.90
9542;DHT22;4809;48.224;8.572;2022-07-29T04:25:40;17.10;99.90
9542;DHT22;4809;48.224;8.572;2022-07-29T04:28:07;17.10;99.90
9542;DHT22;4809;48.224;8.572;2022-07-29T04:30:34;17.20;99.90
9542;DHT22;4809;48.224;8.572;2022-07-29T04:33:01;17.20;99.90
9542;DHT22;4809;48.224;8.572;2022-07-29T04:35:28;17.00;99.90
9542;DHT22;4809;48.224;8.572;2022-07-29T04:37:54;16.70;99.90
9542;DHT22;4809;48.224;8.572;2022-07-29T04:40:20;16.60;99.90
9542;DHT22;4809;48.224;8.572;2022-07-29T04:42:45;16.40;99.90
9542;DHT22;4809;48.224;8.572;2022-07-29T04:45:11;16.40;99.90
9542;DHT22;4809;48.224;8.572;2022-07-29T04:47:37;16.40;99.90
9542;DHT22;4809;48.224;8.572;2022-07-29T04:50:03;16.50;99.90
9542;DHT22;4809;48.224;8.572;2022-07-29T04:52:29;16.60;99.90
9542;DHT22;4809;48.224;8.572;2022-07-29T04:54:54;16.70;99.90
9542;DHT22;4809;48.224;8.572;2022-07-29T04:57:20;16.90;99.90
9542;DHT22;4809;48.224;8.572;2022-07-29T04:59:45;17.00;99.90
9542;DHT22;4809;48.224;8.572;2022-07-29T05:02:11;17.10;99.90
9542;DHT22;4809;48.224;8.572;2022-07-29T05:04:37;17.20;99.90
9542;DHT22;4809;48.224;8.572;2022-07-29T05:07:02;17.30;99.90
9542;DHT22;4809;48.224;8.572;2022-07-29T05:09:28;17.30;99.90
9542;DHT22;4809;48.224;8.572;2022-07-29T05:11:54;17.40;99.90
9542;DHT22;4809;48.224;8.572;2022-07-29T05:14:19;17.60;99.90
9542;DHT22;4809;48.224;8.572;2022-07-29T05:16:45;17.70;99.90
9542;DHT22;4809;48.224;8.572;2022-07-29T05:19:11;17.80;99.90
9542;DHT22;4809;48.224;8.572;2022-07-29T05:21:36;17.90;99.90
9542;DHT22;4809;48.224;8.572;2022-07-29T05:24:02;18.10;99.90
9542;DHT22;4809;48.224;8.572;2022-07-29T05:26:28;18.20;99.90
9542;DHT22;4809;48.224;8.572;2022-07-29T05:28:53;18.30;99.90
9542;DHT22;4809;48.224;8.572;2022-07-29T05:31:20;18.20;99.90
9542;DHT22;4809;48.224;8.572;2022-07-29T05:33:45;18.10;99.90
9542;DHT22;4809;48.224;8.572;2022-07-29T05:36:11;18.00;99.90
9542;DHT22;4809;48.224;8.572;2022-07-29T05:38:37;18.10;99.90
9542;DHT22;4809;48.224;8.572;2022-07-29T05:41:04;18.20;99.90
9542;DHT22;4809;48.224;8.572;2022-07-29T05:43:30;18.20;99.90
9542;DHT22;4809;48.224;8.572;2022-07-29T05:45:59;18.30;99.90
9542;DHT22;4809;48.224;8.572;2022-07-29T05:48:25;18.40;99.90
9542;DHT22;4809;48.224;8.572;2022-07-29T05:50:51;18.50;99.90
9542;DHT22;4809;48.224;8.572;2022-07-29T05:53:17;18.50;99.90
9542;DHT22;4809;48.224;8.572;2022-07-29T05:55:43;18.60;99.90
9542;DHT22;4809;48.224;8.572;2022-07-29T05:58:12;18.80;99.90
9542;DHT22;4809;48.224;8.572;2022-07-29T06:00:40;18.90;99.90
9542;DHT22;4809;48.224;8.572;2022-07-29T06:03:06;19.00;99.90
9542;DHT22;4809;48.224;8.572;2022-07-29T06:05:32;19.00;99.90
9542;DHT22;4809;48.224;8.572;2022-07-29T06:07:57;18.90;99.90
9542;DHT22;4809;48.224;8.572;2022-07-29T06:10:23;18.80;99.90
9542;DHT22;4809;48.224;8.572;2022-07-29T06:12:49;18.80;99.90
9542;DHT22;4809;48.224;8.572;2022-07-29T06:15:15;18.80;99.90
9542;DHT22;4809;48.224;8.572;2022-07-29T06:17:41;18.80;99.90
9542;DHT22;4809;48.224;8.572;2022-07-29T06:20:07;18.90;99.90
9542;DHT22;4809;48.224;8.572;2022-07-29T06:22:33;18.90;99.90
9542;DHT22;4809;48.224;8.572;2022-07-29T06:24:58;18.90;99.90
9542;DHT22;4809;48.224;8.572;2022-07-29T06:27:24;18.70;99.90
9542;DHT22;4809;48.224;8.572;2022-07-29T06:29:50;18.80;99.90
9542;DHT22;4809;48.224;8.572;2022-07-29T06:32:15;18.90;99.90
9542;DHT22;4809;48.224;8.572;2022-07-29T06:34:41;18.90;99.90
9542;DHT22;4809;48.224;8.572;2022-07-29T06:37:07;19.00;99.90
9542;DHT22;4809;48.224;8.572;2022-07-29T06:39:37;19.10;99.90
9542;DHT22;4809;48.224;8.572;2022-07-29T06:42:06;19.10;99.90
9542;DHT22;4809;48.224;8.572;2022-07-29T06:44:32;19.10;99.90
9542;DHT22;4809;48.224;8.572;2022-07-29T06:47:00;19.10;99.90
9542;DHT22;4809;48.224;8.572;2022-07-29T06:49:25;19.10;99.90
9542;DHT22;4809;48.224;8.572;2022-07-29T06:51:53;19.00;99.90
9542;DHT22;4809;48.224;8.572;2022-07-29T06:54:19;19.10;99.90
9542;DHT22;4809;48.224;8.572;2022-07-29T06:56:45;19.30;99.90
9542;DHT22;4809;48.224;8.572;2022-07-29T06:59:11;19.30;99.90
9542;DHT22;4809;48.224;8.572;2022-07-29T07:01:42;19.40;99.90
9542;DHT22;4809;48.224;8.572;2022-07-29T07:04:08;19.50;99.90
9542;DHT22;4809;48.224;8.572;2022-07-29T07:06:35;19.70;99.90
9542;DHT22;4809;48.224;8.572;2022-07-29T07:09:25;20.00;99.90
9542;DHT22;4809;48.224;8.572;2022-07-29T07:12:13;20.30;99.90
9542;DHT22;4809;48.224;8.572;2022-07-29T07:14:39;20.40;99.90
9542;DHT22;4809;48.224;8.572;2022-07-29T07:17:06;20.40;99.90
9542;DHT22;4809;48.224;8.572;2022-07-29T08:07:58;27.90;54.60
9542;DHT22;4809;48.224;8.572;2022-07-29T08:10:24;26.40;57.20
9542;DHT22;4809;48.224;8.572;2022-07-29T08:13:09;25.50;57.60
9542;DHT22;4809;48.224;8.572;2022-07-29T08:15:39;24.80;58.50
9542;DHT22;4809;48.224;8.572;2022-07-29T08:18:05;24.30;58.80
9542;DHT22;4809;48.224;8.572;2022-07-29T08:20:30;23.90;59.80
9542;DHT22;4809;48.224;8.572;2022-07-29T08:22:58;23.60;60.30
9542;DHT22;4809;48.224;8.572;2022-07-29T08:25:24;23.60;61.80
9542;DHT22;4809;48.224;8.572;2022-07-29T08:27:50;23.80;64.20
9542;DHT22;4809;48.224;8.572;2022-07-29T08:30:15;24.00;63.20
9542;DHT22;4809;48.224;8.572;2022-07-29T08:32:41;24.20;63.60
9542;DHT22;4809;48.224;8.572;2022-07-29T08:35:07;24.30;62.80
9542;DHT22;4809;48.224;8.572;2022-07-29T08:37:33;24.30;63.10
9542;DHT22;4809;48.224;8.572;2022-07-29T08:39:58;24.30;61.50
9542;DHT22;4809;48.224;8.572;2022-07-29T08:42:24;24.30;62.50
9542;DHT22;4809;48.224;8.572;2022-07-29T08:44:50;24.40;62.50
9542;DHT22;4809;48.224;8.572;2022-07-29T08:47:16;24.50;62.10
9542;DHT22;4809;48.224;8.572;2022-07-29T08:49:42;24.60;62.10
9542;DHT22;4809;48.224;8.572;2022-07-29T08:52:11;24.60;61.80
9542;DHT22;4809;48.224;8.572;2022-07-29T08:54:39;24.70;61.80
9542;DHT22;4809;48.224;8.572;2022-07-29T08:57:05;24.50;60.90
9542;DHT22;4809;48.224;8.572;2022-07-29T08:59:34;24.60;60.50
9542;DHT22;4809;48.224;8.572;2022-07-29T09:02:01;24.70;60.00
9542;DHT22;4809;48.224;8.572;2022-07-29T09:04:30;24.80;58.70
9542;DHT22;4809;48.224;8.572;2022-07-29T09:07:01;24.80;59.10
9542;DHT22;4809;48.224;8.572;2022-07-29T09:09:29;24.90;58.90
9542;DHT22;4809;48.224;8.572;2022-07-29T09:11:55;24.90;58.60
9542;DHT22;4809;48.224;8.572;2022-07-29T09:14:21;24.90;57.50
9542;DHT22;4809;48.224;8.572;2022-07-29T09:16:52;25.00;57.80
9542;DHT22;4809;48.224;8.572;2022-07-29T09:19:32;25.00;57.80
9542;DHT22;4809;48.224;8.572;2022-07-29T09:22:01;25.00;57.10
9542;DHT22;4809;48.224;8.572;2022-07-29T09:24:45;25.00;58.40
9542;DHT22;4809;48.224;8.572;2022-07-29T09:27:21;25.00;59.30
9542;DHT22;4809;48.224;8.572;2022-07-29T09:30:05;24.90;58.90
9542;DHT22;4809;48.224;8.572;2022-07-29T09:32:32;24.90;58.70
9542;DHT22;4809;48.224;8.572;2022-07-29T09:35:14;24.70;59.00
9542;DHT22;4809;48.224;8.572;2022-07-29T09:37:42;24.60;60.00
9542;DHT22;4809;48.224;8.572;2022-07-29T09:40:12;24.60;59.40
9542;DHT22;4809;48.224;8.572;2022-07-29T09:42:38;24.50;59.80
9542;DHT22;4809;48.224;8.572;2022-07-29T09:45:04;24.40;59.40
9542;DHT22;4809;48.224;8.572;2022-07-29T09:47:50;24.40;59.80
9542;DHT22;4809;48.224;8.572;2022-07-29T09:50:16;24.30;59.00
9542;DHT22;4809;48.224;8.572;2022-07-29T09:52:52;24.30;59.20
9542;DHT22;4809;48.224;8.572;2022-07-29T09:55:19;24.30;59.50
9542;DHT22;4809;48.224;8.572;2022-07-29T09:57:46;24.40;59.60
9542;DHT22;4809;48.224;8.572;2022-07-29T10:00:14;24.40;60.20
9542;DHT22;4809;48.224;8.572;2022-07-29T10:02:42;24.40;59.40
9542;DHT22;4809;48.224;8.572;2022-07-29T10:05:22;24.40;60.20
9542;DHT22;4809;48.224;8.572;2022-07-29T10:07:57;24.30;59.50
9542;DHT22;4809;48.224;8.572;2022-07-29T10:10:34;24.30;60.30
9542;DHT22;4809;48.224;8.572;2022-07-29T10:13:08;24.20;58.70
9542;DHT22;4809;48.224;8.572;2022-07-29T10:15:37;24.10;59.30
9542;DHT22;4809;48.224;8.572;2022-07-29T10:18:05;24.10;59.00
9542;DHT22;4809;48.224;8.572;2022-07-29T10:20:31;24.10;59.80
9542;DHT22;4809;48.224;8.572;2022-07-29T10:22:57;24.10;58.50
9542;DHT22;4809;48.224;8.572;2022-07-29T10:25:23;24.10;58.80
9542;DHT22;4809;48.224;8.572;2022-07-29T10:27:50;24.20;59.30
9542;DHT22;4809;48.224;8.572;2022-07-29T10:30:18;24.40;59.60
9542;DHT22;4809;48.224;8.572;2022-07-29T10:38:30;25.20;57.50
9542;DHT22;4809;48.224;8.572;2022-07-29T11:21:38;27.20;47.60
9542;DHT22;4809;48.224;8.572;2022-07-29T11:24:36;27.00;47.70
9542;DHT22;4809;48.224;8.572;2022-07-29T11:29:41;26.70;48.00
9542;DHT22;4809;48.224;8.572;2022-07-29T11:32:14;26.90;49.80
9542;DHT22;4809;48.224;8.572;2022-07-29T11:34:41;27.00;49.40
9542;DHT22;4809;48.224;8.572;2022-07-29T11:39:41;27.00;48.90
9542;DHT22;4809;48.224;8.572;2022-07-29T11:45:14;27.20;48.60
9542;DHT22;4809;48.224;8.572;2022-07-29T11:47:49;27.30;48.00
9542;DHT22;4809;48.224;8.572;2022-07-29T11:50:17;27.10;48.50
9542;DHT22;4809;48.224;8.572;2022-07-29T11:52:51;26.90;47.10
9542;DHT22;4809;48.224;8.572;2022-07-29T11:55:20;27.00;47.30
9542;DHT22;4809;48.224;8.572;2022-07-29T11:57:51;27.20;45.70
9542;DHT22;4809;48.224;8.572;2022-07-29T12:00:45;27.20;46.70
9542;DHT22;4809;48.224;8.572;2022-07-29T12:03:11;27.30;47.30
9542;DHT22;4809;48.224;8.572;2022-07-29T12:05:41;27.50;45.10
9542;DHT22;4809;48.224;8.572;2022-07-29T12:08:16;27.40;45.40
9542;DHT22;4809;48.224;8.572;2022-07-29T12:10:49;27.30;44.90
9542;DHT22;4809;48.224;8.572;2022-07-29T12:13:18;26.90;44.90
9542;DHT22;4809;48.224;8.572;2022-07-29T12:15:55;26.80;45.70
9542;DHT22;4809;48.224;8.572;2022-07-29T12:18:22;26.60;46.00
9542;DHT22;4809;48.224;8.572;2022-07-29T12:20:48;26.50;46.50
9542;DHT22;4809;48.224;8.572;2022-07-29T12:23:14;26.40;47.20
9542;DHT22;4809;48.224;8.572;2022-07-29T12:25:42;26.40;46.20
9542;DHT22;4809;48.224;8.572;2022-07-29T12:28:14;26.30;46.30
9542;DHT22;4809;48.224;8.572;2022-07-29T12:30:46;26.40;45.10
9542;DHT22;4809;48.224;8.572;2022-07-29T12:33:21;26.60;45.20
9542;DHT22;4809;48.224;8.572;2022-07-29T12:35:50;26.60;44.60
9542;DHT22;4809;48.224;8.572;2022-07-29T12:38:16;26.50;45.20
9542;DHT22;4809;48.224;8.572;2022-07-29T12:40:43;26.40;45.30
9542;DHT22;4809;48.224;8.572;2022-07-29T12:43:17;26.00;45.50
9542;DHT22;4809;48.224;8.572;2022-07-29T12:45:49;25.80;45.30
9542;DHT22;4809;48.224;8.572;2022-07-29T12:48:15;25.60;45.80
9542;DHT22;4809;48.224;8.572;2022-07-29T12:51:01;25.60;46.00
9542;DHT22;4809;48.224;8.572;2022-07-29T12:53:28;25.50;45.40
9542;DHT22;4809;48.224;8.572;2022-07-29T12:55:56;25.50;45.40
9542;DHT22;4809;48.224;8.572;2022-07-29T12:58:27;25.60;45.90
9542;DHT22;4809;48.224;8.572;2022-07-29T13:03:57;25.40;47.20
9542;DHT22;4809;48.224;8.572;2022-07-29T13:06:36;25.50;47.00
9542;DHT22;4809;48.224;8.572;2022-07-29T13:09:17;25.30;47.00
9542;DHT22;4809;48.224;8.572;2022-07-29T13:11:44;25.20;46.70
9542;DHT22;4809;48.224;8.572;2022-07-29T13:14:13;25.30;46.80
9542;DHT22;4809;48.224;8.572;2022-07-29T13:17:02;25.40;47.40
9542;DHT22;4809;48.224;8.572;2022-07-29T13:19:45;25.40;48.20
9542;DHT22;4809;48.224;8.572;2022-07-29T13:22:16;25.60;47.40
9542;DHT22;4809;48.224;8.572;2022-07-29T13:24:57;25.40;47.10
9542;DHT22;4809;48.224;8.572;2022-07-29T13:27:27;25.20;47.00
9542;DHT22;4809;48.224;8.572;2022-07-29T13:29:55;25.20;46.90
9542;DHT22;4809;48.224;8.572;2022-07-29T13:32:25;25.00;47.30
9542;DHT22;4809;48.224;8.572;2022-07-29T13:34:52;24.90;48.10
9542;DHT22;4809;48.224;8.572;2022-07-29T13:37:19;24.90;48.70
9542;DHT22;4809;48.224;8.572;2022-07-29T13:39:45;24.80;47.80
9542;DHT22;4809;48.224;8.572;2022-07-29T13:42:10;24.60;48.40
9542;DHT22;4809;48.224;8.572;2022-07-29T13:44:39;24.60;49.10
9542;DHT22;4809;48.224;8.572;2022-07-29T13:47:05;24.60;49.40
9542;DHT22;4809;48.224;8.572;2022-07-29T13:49:31;24.70;49.80
9542;DHT22;4809;48.224;8.572;2022-07-29T13:51:57;24.60;49.50
9542;DHT22;4809;48.224;8.572;2022-07-29T13:54:23;24.70;49.40
9542;DHT22;4809;48.224;8.572;2022-07-29T13:56:50;24.70;49.70
9542;DHT22;4809;48.224;8.572;2022-07-29T13:59:16;24.60;49.00
9542;DHT22;4809;48.224;8.572;2022-07-29T14:01:41;24.50;49.40
9542;DHT22;4809;48.224;8.572;2022-07-29T14:04:08;24.50;49.10
9542;DHT22;4809;48.224;8.572;2022-07-29T14:06:34;24.50;48.90
9542;DHT22;4809;48.224;8.572;2022-07-29T14:09:00;24.50;48.60
9542;DHT22;4809;48.224;8.572;2022-07-29T14:11:25;24.50;48.50
9542;DHT22;4809;48.224;8.572;2022-07-29T14:13:51;24.50;48.70
9542;DHT22;4809;48.224;8.572;2022-07-29T14:16:16;24.60;48.70
9542;DHT22;4809;48.224;8.572;2022-07-29T14:18:42;24.70;49.20
9542;DHT22;4809;48.224;8.572;2022-07-29T14:21:08;24.70;49.70
9542;DHT22;4809;48.224;8.572;2022-07-29T14:23:34;24.80;50.30
9542;DHT22;4809;48.224;8.572;2022-07-29T14:26:00;24.80;49.80
9542;DHT22;4809;48.224;8.572;2022-07-29T14:28:26;25.00;49.90
9542;DHT22;4809;48.224;8.572;2022-07-29T14:30:51;25.00;49.20
9542;DHT22;4809;48.224;8.572;2022-07-29T14:33:17;25.00;49.10
9542;DHT22;4809;48.224;8.572;2022-07-29T14:35:43;25.00;48.30
9542;DHT22;4809;48.224;8.572;2022-07-29T14:38:09;25.00;48.80
9542;DHT22;4809;48.224;8.572;2022-07-29T14:40:35;25.00;49.10
9542;DHT22;4809;48.224;8.572;2022-07-29T14:43:02;25.00;49.10
9542;DHT22;4809;48.224;8.572;2022-07-29T14:45:28;25.10;49.40
9542;DHT22;4809;48.224;8.572;2022-07-29T14:47:54;25.20;49.10
9542;DHT22;4809;48.224;8.572;2022-07-29T14:50:19;25.10;48.20
9542;DHT22;4809;48.224;8.572;2022-07-29T14:52:45;25.20;47.50
9542;DHT22;4809;48.224;8.572;2022-07-29T14:55:12;25.20;48.00
9542;DHT22;4809;48.224;8.572;2022-07-29T14:57:37;25.20;47.70
9542;DHT22;4809;48.224;8.572;2022-07-29T15:00:05;25.20;47.20
9542;DHT22;4809;48.224;8.572;2022-07-29T15:02:34;25.10;46.80
9542;DHT22;4809;48.224;8.572;2022-07-29T15:05:00;25.00;46.90
9542;DHT22;4809;48.224;8.572;2022-07-29T15:07:26;25.00;47.80
9542;DHT22;4809;48.224;8.572;2022-07-29T15:09:52;25.00;48.10
9542;DHT22;4809;48.224;8.572;2022-07-29T15:12:17;24.90;48.20
9542;DHT22;4809;48.224;8.572;2022-07-29T15:14:43;24.90;48.30
9542;DHT22;4809;48.224;8.572;2022-07-29T15:17:09;24.90;48.00
9542;DHT22;4809;48.224;8.572;2022-07-29T15:19:34;25.00;48.50
9542;DHT22;4809;48.224;8.572;2022-07-29T15:22:00;25.00;47.60
9542;DHT22;4809;48.224;8.572;2022-07-29T15:24:26;25.00;47.80
9542;DHT22;4809;48.224;8.572;2022-07-29T15:26:52;25.10;48.40
9542;DHT22;4809;48.224;8.572;2022-07-29T15:29:17;25.10;48.80
9542;DHT22;4809;48.224;8.572;2022-07-29T15:31:43;25.10;47.50
9542;DHT22;4809;48.224;8.572;2022-07-29T15:34:09;25.10;48.70
9542;DHT22;4809;48.224;8.572;2022-07-29T15:36:35;25.00;48.40
9542;DHT22;4809;48.224;8.572;2022-07-29T15:39:00;25.00;48.30
9542;DHT22;4809;48.224;8.572;2022-07-29T15:41:26;24.90;48.80
9542;DHT22;4809;48.224;8.572;2022-07-29T15:43:52;24.90;48.20
9542;DHT22;4809;48.224;8.572;2022-07-29T15:46:19;24.80;47.40
9542;DHT22;4809;48.224;8.572;2022-07-29T15:49:05;24.70;48.10
9542;DHT22;4809;48.224;8.572;2022-07-29T15:51:31;24.70;47.50
9542;DHT22;4809;48.224;8.572;2022-07-29T15:53:57;24.90;48.00
9542;DHT22;4809;48.224;8.572;2022-07-29T15:56:23;25.00;47.90
9542;DHT22;4809;48.224;8.572;2022-07-29T15:58:49;25.00;47.40
9542;DHT22;4809;48.224;8.572;2022-07-29T16:01:15;25.20;47.60
9542;DHT22;4809;48.224;8.572;2022-07-29T16:03:41;25.10;48.20
9542;DHT22;4809;48.224;8.572;2022-07-29T16:06:06;25.00;47.30
9542;DHT22;4809;48.224;8.572;2022-07-29T16:08:32;24.80;47.50
9542;DHT22;4809;48.224;8.572;2022-07-29T16:10:58;24.70;48.80
9542;DHT22;4809;48.224;8.572;2022-07-29T16:13:23;24.50;48.80
9542;DHT22;4809;48.224;8.572;2022-07-29T16:15:49;24.50;49.50
9542;DHT22;4809;48.224;8.572;2022-07-29T16:18:14;24.50;49.50
9542;DHT22;4809;48.224;8.572;2022-07-29T16:20:41;24.50;50.10
9542;DHT22;4809;48.224;8.572;2022-07-29T16:23:07;24.60;49.50
9542;DHT22;4809;48.224;8.572;2022-07-29T16:25:35;24.60;50.00
9542;DHT22;4809;48.224;8.572;2022-07-29T16:28:01;24.70;49.80
9542;DHT22;4809;48.224;8.572;2022-07-29T16:30:26;24.80;49.00
9542;DHT22;4809;48.224;8.572;2022-07-29T16:32:52;24.80;48.50
9542;DHT22;4809;48.224;8.572;2022-07-29T16:35:18;24.70;48.60
9542;DHT22;4809;48.224;8.572;2022-07-29T16:37:44;24.60;48.00
9542;DHT22;4809;48.224;8.572;2022-07-29T16:40:09;24.50;48.40
9542;DHT22;4809;48.224;8.572;2022-07-29T16:42:35;24.50;48.50
9542;DHT22;4809;48.224;8.572;2022-07-29T16:45:01;24.30;48.90
9542;DHT22;4809;48.224;8.572;2022-07-29T16:47:27;24.30;49.60
9542;DHT22;4809;48.224;8.572;2022-07-29T16:49:52;24.20;49.90
9542;DHT22;4809;48.224;8.572;2022-07-29T16:52:18;24.20;49.60
9542;DHT22;4809;48.224;8.572;2022-07-29T16:54:44;24.10;50.30
9542;DHT22;4809;48.224;8.572;2022-07-29T16:57:10;24.00;50.80
9542;DHT22;4809;48.224;8.572;2022-07-29T16:59:37;24.00;49.80
9542;DHT22;4809;48.224;8.572;2022-07-29T17:02:03;24.00;49.70
9542;DHT22;4809;48.224;8.572;2022-07-29T17:04:29;24.00;49.90
9542;DHT22;4809;48.224;8.572;2022-07-29T17:06:56;24.00;49.10
9542;DHT22;4809;48.224;8.572;2022-07-29T17:09:22;23.90;48.80
9542;DHT22;4809;48.224;8.572;2022-07-29T17:11:49;24.00;49.00
9542;DHT22;4809;48.224;8.572;2022-07-29T17:14:18;24.00;48.60
9542;DHT22;4809;48.224;8.572;2022-07-29T17:16:44;24.00;48.90
9542;DHT22;4809;48.224;8.572;2022-07-29T17:19:10;24.00;47.30
9542;DHT22;4809;48.224;8.572;2022-07-29T17:21:36;23.90;47.40
9542;DHT22;4809;48.224;8.572;2022-07-29T17:24:02;23.90;47.90
9542;DHT22;4809;48.224;8.572;2022-07-29T17:26:28;23.90;47.90
9542;DHT22;4809;48.224;8.572;2022-07-29T17:28:54;24.00;47.90
9542;DHT22;4809;48.224;8.572;2022-07-29T17:31:19;24.00;48.60
9542;DHT22;4809;48.224;8.572;2022-07-29T17:33:45;24.00;48.10
9542;DHT22;4809;48.224;8.572;2022-07-29T17:36:11;24.10;47.30
9542;DHT22;4809;48.224;8.572;2022-07-29T17:38:55;24.10;46.80
9542;DHT22;4809;48.224;8.572;2022-07-29T17:41:21;24.10;46.30
9542;DHT22;4809;48.224;8.572;2022-07-29T17:43:48;24.00;46.20
9542;DHT22;4809;48.224;8.572;2022-07-29T17:46:14;24.00;45.70
9542;DHT22;4809;48.224;8.572;2022-07-29T17:48:40;23.80;45.60
9542;DHT22;4809;48.224;8.572;2022-07-29T17:51:06;23.70;45.20
9542;DHT22;4809;48.224;8.572;2022-07-29T17:53:32;23.50;45.90
9542;DHT22;4809;48.224;8.572;2022-07-29T17:55:58;23.50;46.10
9542;DHT22;4809;48.224;8.572;2022-07-29T17:58:24;23.40;46.90
9542;DHT22;4809;48.224;8.572;2022-07-29T18:00:50;23.40;47.40
9542;DHT22;4809;48.224;8.572;2022-07-29T18:03:16;23.20;47.50
9542;DHT22;4809;48.224;8.572;2022-07-29T18:05:41;23.20;47.30